createdAt,value
2018-12-14T00:00:49.130Z,-1.4
2018-12-14T00:05:51.522Z,-1.4
2018-12-14T00:10:53.591Z,-1.3
2018-12-14T00:15:56.007Z,-1.3
2018-12-14T00:20:58.273Z,-1.3
2018-12-14T00:26:00.485Z,-1.3
2018-12-14T00:31:02.826Z,-1.3
2018-12-14T00:36:05.159Z,-1.3
2018-12-14T00:41:07.465Z,-1.3
2018-12-14T00:46:09.680Z,-1.3
2018-12-14T00:51:12.010Z,-1.3
2018-12-14T00:56:14.372Z,-1.3
2018-12-14T01:01:16.534Z,-1.3
2018-12-14T01:06:19.003Z,-1.4
2018-12-14T01:11:21.243Z,-1.3
2018-12-14T01:16:23.482Z,-1.3
2018-12-14T01:21:25.831Z,-1.3
2018-12-14T01:26:28.161Z,-1.2
2018-12-14T01:31:30.340Z,-1.1
2018-12-14T01:36:32.686Z,-1
2018-12-14T01:41:35.002Z,-1
2018-12-14T01:46:39.063Z,-1
2018-12-14T01:51:39.479Z,-1
2018-12-14T01:56:41.901Z,-0.9
2018-12-14T02:01:44.237Z,-0.8
2018-12-14T02:06:46.457Z,-0.7
2018-12-14T02:11:48.681Z,-0.7
2018-12-14T02:16:51.119Z,-0.7
2018-12-14T02:21:53.338Z,-0.6
2018-12-14T02:26:55.565Z,-0.6
2018-12-14T02:31:57.819Z,-0.5
2018-12-14T02:37:00.247Z,-0.6
2018-12-14T02:42:02.443Z,-0.6
2018-12-14T02:47:04.863Z,-0.6
2018-12-14T02:52:07.100Z,-0.6
2018-12-14T02:57:09.329Z,-0.6
2018-12-14T03:02:11.785Z,-0.6
2018-12-14T03:07:13.996Z,-0.6
2018-12-14T03:12:16.230Z,-0.5
2018-12-14T03:17:18.476Z,-0.6
2018-12-14T03:22:20.817Z,-0.6
2018-12-14T03:27:23.267Z,-0.6
2018-12-14T03:32:26.546Z,-0.5
2018-12-14T03:37:29.553Z,-0.4
2018-12-14T03:42:34.420Z,-0.4
2018-12-14T03:47:32.542Z,-0.4
2018-12-14T03:52:35.985Z,-0.3
2018-12-14T03:57:37.926Z,-0.3
2018-12-14T04:02:39.178Z,-0.2
2018-12-14T04:07:41.479Z,-0.2
2018-12-14T04:12:43.891Z,-0.3
2018-12-14T04:17:47.148Z,-0.4
2018-12-14T04:22:48.281Z,-0.4
2018-12-14T04:27:50.722Z,-0.5
2018-12-14T04:32:52.949Z,-0.5
2018-12-14T04:37:55.243Z,-0.6
2018-12-14T04:42:57.460Z,-0.6
2018-12-14T04:48:01.178Z,-0.6
2018-12-14T04:53:03.255Z,-0.5
2018-12-14T04:58:04.412Z,-0.5
2018-12-14T05:03:06.669Z,-0.5
2018-12-14T05:08:09.145Z,-0.5
2018-12-14T05:13:11.294Z,-0.5
2018-12-14T05:18:13.697Z,-0.5
2018-12-14T05:23:15.942Z,-0.5
2018-12-14T05:28:19.697Z,-0.5
2018-12-14T05:33:20.560Z,-0.5
2018-12-14T05:38:22.727Z,-0.5
2018-12-14T05:43:25.036Z,-0.4
2018-12-14T05:48:27.432Z,-0.5
2018-12-14T05:53:29.574Z,-0.4
2018-12-14T05:58:31.929Z,-0.5
2018-12-14T06:03:34.389Z,-0.5
2018-12-14T06:08:36.522Z,-0.5
2018-12-14T06:13:38.883Z,-0.5
2018-12-14T06:18:41.176Z,-0.5
2018-12-14T06:23:44.581Z,-0.4
2018-12-14T06:28:45.668Z,-0.4
2018-12-14T06:33:48.163Z,-0.4
2018-12-14T06:49:12.687Z,-0.4
2018-12-14T06:54:15.028Z,-0.4
2018-12-14T06:59:17.284Z,-0.4
2018-12-14T07:04:19.618Z,-0.4
2018-12-14T07:09:21.815Z,-0.3
2018-12-14T07:14:24.070Z,-0.3
2018-12-14T07:19:26.494Z,-0.3
2018-12-14T07:24:28.790Z,-0.3
2018-12-14T07:29:31.019Z,-0.3
2018-12-14T07:34:33.342Z,-0.3
2018-12-14T07:39:35.555Z,-0.3
2018-12-14T07:44:38.257Z,-0.3
2018-12-14T07:49:40.269Z,-0.3
2018-12-14T07:54:42.640Z,-0.3
2018-12-14T07:59:44.775Z,-0.3
2018-12-14T08:04:47.032Z,-0.3
2018-12-14T08:09:49.443Z,-0.3
2018-12-14T08:14:51.781Z,-0.3
2018-12-14T08:19:53.913Z,-0.2
2018-12-14T08:24:56.356Z,-0.2
2018-12-14T08:29:58.641Z,-0.3
2018-12-14T08:35:00.795Z,-0.2
2018-12-14T08:40:03.125Z,-0.3
2018-12-14T08:45:05.533Z,-0.3
2018-12-14T08:50:07.704Z,-0.2
2018-12-14T08:55:09.925Z,-0.2
2018-12-14T09:00:12.210Z,-0.2
2018-12-14T09:05:15.244Z,-0.2
2018-12-14T09:10:16.882Z,-0.2
2018-12-14T09:15:19.187Z,-0.1
2018-12-14T09:20:21.491Z,-0.2
2018-12-14T09:25:23.718Z,-0.1
2018-12-14T09:30:26.102Z,-0.1
2018-12-14T09:35:28.330Z,-0.1
2018-12-14T09:40:30.723Z,0
2018-12-14T09:45:32.997Z,0
2018-12-14T09:50:35.236Z,0
2018-12-14T09:55:37.528Z,0.1
2018-12-14T10:00:39.953Z,0
2018-12-14T10:05:42.130Z,0.1
2018-12-14T10:10:44.341Z,0.1
2018-12-14T10:15:46.796Z,0.2
2018-12-14T10:20:49.074Z,0.2
2018-12-14T10:25:51.234Z,0.2
2018-12-14T10:30:53.594Z,0.2
2018-12-14T10:35:55.879Z,0.3
2018-12-14T10:40:58.220Z,0.3
2018-12-14T10:46:00.427Z,0.4
2018-12-14T10:51:02.712Z,0.4
2018-12-14T10:56:05.178Z,0.4
2018-12-14T11:01:07.393Z,0.5
2018-12-14T11:06:09.577Z,0.6
2018-12-14T11:11:11.909Z,0.6
2018-12-14T11:16:14.184Z,0.7
2018-12-14T11:21:17.474Z,0.7
2018-12-14T11:26:18.792Z,0.7
2018-12-14T11:31:21.111Z,0.8
2018-12-14T11:36:23.405Z,0.9
2018-12-14T11:41:25.710Z,1
2018-12-14T11:46:27.982Z,1
2018-12-14T11:51:30.522Z,1
2018-12-14T11:56:32.581Z,1.1
2018-12-14T12:01:34.898Z,1.2
2018-12-14T12:06:37.148Z,1.2
2018-12-14T12:11:39.502Z,1.3
2018-12-14T12:16:41.738Z,1.3
2018-12-14T12:21:44.031Z,1.3
2018-12-14T12:26:46.241Z,1.3
2018-12-14T12:31:48.602Z,1.3
2018-12-14T12:36:50.939Z,1.4
2018-12-14T12:41:53.179Z,1.3
2018-12-14T12:46:55.557Z,1.3
2018-12-14T12:51:57.875Z,1.3
2018-12-14T12:57:00.215Z,1.3
2018-12-14T13:02:02.456Z,1.3
2018-12-14T13:07:04.712Z,1.2
2018-12-14T13:12:07.075Z,1.2
2018-12-14T13:17:09.328Z,1.2
2018-12-14T13:22:11.585Z,1.2
2018-12-14T13:27:20.095Z,1.2
2018-12-14T13:32:16.180Z,1.2
2018-12-14T13:37:18.402Z,1.1
2018-12-14T13:42:20.855Z,1.1
2018-12-14T13:47:23.008Z,1.1
2018-12-14T13:52:25.416Z,1.2
2018-12-14T13:57:27.607Z,1.2
2018-12-14T14:02:29.982Z,1.2
2018-12-14T14:07:32.301Z,1.2
2018-12-14T14:12:34.537Z,1.2
2018-12-14T14:17:36.762Z,1.2
2018-12-14T14:22:39.209Z,1.2
2018-12-14T14:27:41.502Z,1.1
2018-12-14T14:32:43.605Z,1.1
2018-12-14T14:37:45.970Z,1
2018-12-14T14:42:48.325Z,1
2018-12-14T14:47:50.563Z,1
2018-12-14T14:52:52.825Z,0.9
2018-12-14T14:57:55.248Z,0.9
2018-12-14T15:02:57.536Z,0.9
2018-12-14T15:07:59.736Z,0.9
2018-12-14T15:13:01.970Z,0.8
2018-12-14T15:18:04.318Z,0.9
2018-12-14T15:23:06.726Z,0.8
2018-12-14T15:28:08.887Z,0.8
2018-12-14T15:33:11.215Z,0.8
2018-12-14T15:38:13.578Z,0.8
2018-12-14T15:43:16.159Z,0.8
2018-12-14T15:48:18.101Z,0.8
2018-12-14T15:53:20.302Z,0.7
2018-12-14T15:58:22.707Z,0.7
2018-12-14T16:03:25.062Z,0.8
2018-12-14T16:08:27.356Z,0.8
2018-12-14T16:13:29.559Z,0.8
2018-12-14T16:18:31.918Z,0.8
2018-12-14T16:23:34.173Z,0.8
2018-12-14T16:28:36.495Z,0.7
2018-12-14T16:33:38.655Z,0.7
2018-12-14T16:38:41.027Z,0.7
2018-12-14T16:43:43.254Z,0.7
2018-12-14T16:48:45.559Z,0.6
2018-12-14T16:53:47.878Z,0.6
2018-12-14T16:58:50.303Z,0.6
2018-12-14T17:03:52.542Z,0.6
2018-12-14T17:08:54.802Z,0.6
2018-12-14T17:13:57.015Z,0.6
2018-12-14T17:18:59.409Z,0.6
2018-12-14T17:24:01.622Z,0.6
2018-12-14T17:29:03.905Z,0.6
2018-12-14T17:34:06.255Z,0.6
2018-12-14T17:39:08.592Z,0.6
2018-12-14T17:44:10.896Z,0.6
2018-12-14T17:49:13.289Z,0.6
2018-12-14T17:54:15.499Z,0.6
2018-12-14T17:59:17.681Z,0.6
2018-12-14T18:04:20.032Z,0.5
2018-12-14T18:09:22.385Z,0.6
2018-12-14T18:14:24.605Z,0.6
2018-12-14T18:19:26.934Z,0.5
2018-12-14T18:24:29.162Z,0.6
2018-12-14T18:29:31.495Z,0.5
2018-12-14T18:34:33.742Z,0.5
2018-12-14T18:39:36.012Z,0.5
2018-12-14T18:44:38.471Z,0.5
2018-12-14T18:49:40.615Z,0.6
2018-12-14T18:54:42.889Z,0.5
2018-12-14T18:59:45.260Z,0.5
2018-12-14T19:04:47.605Z,0.5
2018-12-14T19:09:49.793Z,0.5
2018-12-14T19:14:52.119Z,0.5
2018-12-14T19:19:54.466Z,0.5
2018-12-14T19:24:56.653Z,0.5
2018-12-14T19:29:59.014Z,0.5
2018-12-14T19:35:01.506Z,0.5
2018-12-14T19:40:03.573Z,0.5
2018-12-14T19:45:05.838Z,0.5
2018-12-14T19:50:08.111Z,0.5
2018-12-14T19:55:10.464Z,0.4
2018-12-14T20:00:12.817Z,0.4
2018-12-14T20:05:15.286Z,0.4
2018-12-14T20:10:17.351Z,0.3
2018-12-14T20:15:19.597Z,0.4
2018-12-14T20:20:21.948Z,0.3
2018-12-14T20:25:24.173Z,0.4
2018-12-14T20:30:26.503Z,0.3
2018-12-14T20:35:28.847Z,0.4
2018-12-14T20:40:31.212Z,0.3
2018-12-14T20:45:33.565Z,0.3
2018-12-14T20:50:35.740Z,0.3
2018-12-14T20:55:37.976Z,0.3
2018-12-14T21:00:40.271Z,0.3
2018-12-14T21:05:42.639Z,0.3
2018-12-14T21:10:44.902Z,0.3
2018-12-14T21:15:47.106Z,0.3
2018-12-14T21:20:49.534Z,0.3
2018-12-14T21:25:51.828Z,0.3
2018-12-14T21:30:54.139Z,0.3
2018-12-14T21:35:56.442Z,0.3
2018-12-14T21:40:58.681Z,0.3
2018-12-14T21:46:00.970Z,0.3
2018-12-14T21:51:03.245Z,0.3
2018-12-14T21:56:05.550Z,0.3
2018-12-14T22:01:07.816Z,0.3
2018-12-14T22:06:10.162Z,0.3
2018-12-14T22:11:12.405Z,0.3
2018-12-14T22:16:14.713Z,0.3
2018-12-14T22:21:17.165Z,0.3
2018-12-14T22:26:19.299Z,0.3
2018-12-14T22:31:21.654Z,0.3
2018-12-14T22:36:23.818Z,0.3
2018-12-14T22:41:26.223Z,0.3
2018-12-14T22:46:28.558Z,0.3
2018-12-14T22:51:30.932Z,0.3
2018-12-14T22:56:33.079Z,0.3
2018-12-14T23:01:35.405Z,0.3
2018-12-14T23:06:37.728Z,0.3
2018-12-14T23:11:40.072Z,0.3
2018-12-14T23:16:42.188Z,0.3
2018-12-14T23:21:44.627Z,0.3
2018-12-14T23:26:46.902Z,0.3
2018-12-14T23:31:49.183Z,0.3
2018-12-14T23:36:51.469Z,0.3
2018-12-14T23:41:53.723Z,0.3
2018-12-14T23:46:58.948Z,0.3
2018-12-14T23:51:58.304Z,0.2
2018-12-14T23:57:00.664Z,0.2
